createdAt,value
2023-05-10T00:02:21.864Z,87079.53
2023-05-10T00:04:49.668Z,87075.38
2023-05-10T00:07:16.906Z,87067.47
2023-05-10T00:09:44.864Z,87061.81
2023-05-10T00:12:12.243Z,87065.63
2023-05-10T00:14:39.506Z,87056.94
2023-05-10T00:17:06.795Z,87056.16
2023-05-10T00:19:34.161Z,87059.59
2023-05-10T00:22:01.672Z,87053.16
2023-05-10T00:24:28.965Z,87050.88
2023-05-10T00:26:56.255Z,87050.53
2023-05-10T00:29:23.707Z,87047.88
2023-05-10T00:31:51.068Z,87047.16
2023-05-10T00:34:18.389Z,87043.38
2023-05-10T00:36:45.687Z,87044.50
2023-05-10T00:39:13.021Z,87037.34
2023-05-10T00:41:40.321Z,87039.63
2023-05-10T00:44:07.690Z,87039.25
2023-05-10T00:46:35.496Z,87038.88
2023-05-10T00:49:03.218Z,87029.09
2023-05-10T00:51:31.059Z,87034.75
2023-05-10T00:53:59.299Z,87032.16
2023-05-10T00:56:28.140Z,87038.91
2023-05-10T00:58:55.620Z,87030.28
2023-05-10T01:01:23.819Z,87031.06
2023-05-10T01:03:51.591Z,87021.25
2023-05-10T01:06:19.049Z,87014.91
2023-05-10T01:08:46.751Z,87012.25
2023-05-10T01:11:14.615Z,87017.13
2023-05-10T01:13:47.444Z,87011.13
2023-05-10T01:16:15.097Z,87013.03
2023-05-10T01:18:43.985Z,87010.00
2023-05-10T01:21:51.903Z,87011.94
2023-05-10T01:25:12.324Z,87018.72
2023-05-10T01:27:57.337Z,87010.81
2023-05-10T01:30:46.551Z,87009.69
2023-05-10T01:33:24.244Z,87006.69
2023-05-10T01:36:16.672Z,87004.00
2023-05-10T01:39:06.969Z,86997.59
2023-05-10T01:42:12.090Z,86992.38
2023-05-10T01:44:48.637Z,86996.13
2023-05-10T01:47:30.642Z,86993.50
2023-05-10T01:50:04.274Z,86991.63
2023-05-10T01:52:45.890Z,86993.88
2023-05-10T01:55:19.221Z,86994.25
2023-05-10T01:57:52.321Z,86991.22
2023-05-10T02:00:21.433Z,86986.69
2023-05-10T02:02:51.973Z,86991.97
2023-05-10T02:05:21.843Z,86985.56
2023-05-10T02:07:51.093Z,86990.47
2023-05-10T02:10:21.015Z,86984.81
2023-05-10T02:12:51.075Z,86985.19
2023-05-10T02:15:25.048Z,86986.34
2023-05-10T02:17:56.442Z,86982.97
2023-05-10T02:20:26.960Z,86985.22
2023-05-10T02:22:58.658Z,86974.28
2023-05-10T02:25:28.266Z,86981.06
2023-05-10T02:27:58.831Z,86980.28
2023-05-10T02:30:27.231Z,86975.41
2023-05-10T02:32:55.657Z,86976.94
2023-05-10T02:35:24.844Z,86976.94
2023-05-10T02:37:53.728Z,86974.28
2023-05-10T02:40:24.407Z,86971.66
2023-05-10T02:42:57.416Z,86977.28
2023-05-10T02:45:31.271Z,86971.25
2023-05-10T02:47:59.654Z,86962.97
2023-05-10T02:50:31.253Z,86962.97
2023-05-10T02:53:05.058Z,86970.94
2023-05-10T02:55:41.538Z,86965.66
2023-05-10T02:58:08.870Z,86958.88
2023-05-10T03:00:36.269Z,86959.28
2023-05-10T03:03:03.617Z,86958.88
2023-05-10T03:05:30.952Z,86958.53
2023-05-10T03:07:58.475Z,86954.72
2023-05-10T03:10:31.592Z,86961.91
2023-05-10T03:13:27.073Z,86962.28
2023-05-10T03:16:09.090Z,86963.81
2023-05-10T03:18:42.110Z,86959.69
2023-05-10T03:21:14.750Z,86960.44
2023-05-10T03:24:09.042Z,86959.34
2023-05-10T03:26:38.358Z,86958.22
2023-05-10T03:29:08.338Z,86960.88
2023-05-10T03:31:36.217Z,86960.47
2023-05-10T03:34:04.057Z,86954.84
2023-05-10T03:36:31.403Z,86963.13
2023-05-10T03:38:58.692Z,86958.63
2023-05-10T03:41:26.016Z,86962.03
2023-05-10T03:43:53.483Z,86963.19
2023-05-10T03:46:20.684Z,86958.31
2023-05-10T03:48:47.977Z,86961.69
2023-05-10T03:51:15.320Z,86956.41
2023-05-10T03:53:42.635Z,86951.88
2023-05-10T03:56:09.935Z,86964.69
2023-05-10T03:58:37.309Z,86953.75
2023-05-10T04:01:04.615Z,86960.94
2023-05-10T04:03:31.996Z,86959.78
2023-05-10T04:06:03.501Z,86951.91
2023-05-10T04:08:31.038Z,86954.16
2023-05-10T04:11:12.540Z,86954.91
2023-05-10T04:13:39.973Z,86950.41
2023-05-10T04:16:07.494Z,86952.66
2023-05-10T04:18:34.753Z,86962.09
2023-05-10T04:21:02.086Z,86957.97
2023-05-10T04:23:29.656Z,86955.69
2023-05-10T04:26:04.256Z,86959.84
2023-05-10T04:28:31.617Z,86958.69
2023-05-10T04:31:10.395Z,86964.00
2023-05-10T04:33:38.224Z,86962.88
2023-05-10T04:36:06.130Z,86961.34
2023-05-10T04:38:33.345Z,86961.75
2023-05-10T04:41:09.491Z,86959.47
2023-05-10T04:43:37.658Z,86955.72
2023-05-10T04:46:06.558Z,86958.72
2023-05-10T04:48:34.265Z,86965.88
2023-05-10T04:51:01.679Z,86959.13
2023-05-10T04:53:29.002Z,86966.28
2023-05-10T04:55:56.476Z,86962.91
2023-05-10T04:58:24.011Z,86963.28
2023-05-10T05:00:51.286Z,86964.78
2023-05-10T05:03:18.742Z,86963.28
2023-05-10T05:05:46.063Z,86967.84
2023-05-10T05:08:13.297Z,86964.06
2023-05-10T05:10:40.596Z,86964.06
2023-05-10T05:13:08.010Z,86958.41
2023-05-10T05:15:35.384Z,86966.72
2023-05-10T05:18:02.635Z,86964.84
2023-05-10T05:20:33.552Z,86961.44
2023-05-10T05:23:01.517Z,86960.69
2023-05-10T05:25:29.041Z,86963.34
2023-05-10T05:27:56.389Z,86965.22
2023-05-10T05:30:23.700Z,86964.06
2023-05-10T05:32:50.979Z,86963.34
2023-05-10T05:35:18.655Z,86966.72
2023-05-10T05:37:46.113Z,86968.59
2023-05-10T05:40:16.624Z,86965.59
2023-05-10T05:42:44.087Z,86964.06
2023-05-10T05:45:11.842Z,86962.91
2023-05-10T05:47:43.647Z,86967.81
2023-05-10T05:50:11.612Z,86967.78
2023-05-10T05:52:38.875Z,86967.03
2023-05-10T05:55:06.792Z,86965.91
2023-05-10T05:57:34.304Z,86961.75
2023-05-10T06:00:01.627Z,86961.00
2023-05-10T06:02:29.118Z,86966.25
2023-05-10T06:04:56.432Z,86975.28
2023-05-10T06:07:23.776Z,86960.22
2023-05-10T06:09:51.164Z,86973.03
2023-05-10T06:12:18.786Z,86974.53
2023-05-10T06:14:46.090Z,86971.50
2023-05-10T06:17:13.482Z,86966.97
2023-05-10T06:19:40.906Z,86979.75
2023-05-10T06:22:08.547Z,86972.97
2023-05-10T06:24:35.845Z,86972.63
2023-05-10T06:27:03.167Z,86973.75
2023-05-10T06:29:30.452Z,86976.00
2023-05-10T06:31:58.008Z,86980.88
2023-05-10T06:34:25.811Z,86977.88
2023-05-10T06:36:53.336Z,86978.28
2023-05-10T06:39:20.758Z,86973.41
2023-05-10T06:41:48.166Z,86973.78
2023-05-10T06:44:15.631Z,86974.16
2023-05-10T06:46:43.127Z,86977.53
2023-05-10T06:49:10.533Z,86976.00
2023-05-10T06:51:37.801Z,86969.66
2023-05-10T06:54:05.069Z,86965.97
2023-05-10T06:56:32.334Z,86979.47
2023-05-10T06:58:59.547Z,86977.94
2023-05-10T07:01:27.031Z,86969.66
2023-05-10T07:03:54.523Z,86976.03
2023-05-10T07:06:32.235Z,86976.41
2023-05-10T07:09:01.639Z,86979.00
2023-05-10T07:11:29.093Z,86975.97
2023-05-10T07:13:56.376Z,86966.16
2023-05-10T07:16:23.730Z,86967.69
2023-05-10T07:18:51.006Z,86970.72
2023-05-10T07:21:18.351Z,86967.31
2023-05-10T07:23:45.647Z,86972.22
2023-05-10T07:26:13.269Z,86967.69
2023-05-10T07:28:40.506Z,86975.97
2023-05-10T07:31:08.218Z,86969.19
2023-05-10T07:33:35.576Z,86971.41
2023-05-10T07:36:03.008Z,86975.53
2023-05-10T07:38:30.443Z,86981.94
2023-05-10T07:40:57.769Z,86971.38
2023-05-10T07:43:25.045Z,86968.78
2023-05-10T07:45:54.634Z,86975.56
2023-05-10T07:48:23.429Z,86970.66
2023-05-10T07:50:50.816Z,86988.00
2023-05-10T07:53:18.729Z,86980.44
2023-05-10T07:55:51.828Z,86975.94
2023-05-10T07:58:19.318Z,86975.16
2023-05-10T08:00:46.714Z,86973.66
2023-05-10T08:03:14.183Z,86972.50
2023-05-10T08:05:41.736Z,86974.38
2023-05-10T08:08:09.073Z,86972.16
2023-05-10T08:10:36.415Z,86975.19
2023-05-10T08:13:03.994Z,86976.69
2023-05-10T08:15:31.318Z,86974.06
2023-05-10T08:17:58.836Z,86969.19
2023-05-10T08:20:26.170Z,86979.69
2023-05-10T08:22:53.493Z,86971.38
2023-05-10T08:25:21.184Z,86973.66
2023-05-10T08:27:48.796Z,86974.38
2023-05-10T08:30:16.437Z,86976.69
2023-05-10T08:32:44.002Z,86980.50
2023-05-10T08:35:11.392Z,86977.81
2023-05-10T08:37:38.711Z,86979.31
2023-05-10T08:40:09.849Z,86972.88
2023-05-10T08:42:41.316Z,86968.75
2023-05-10T08:45:13.206Z,86978.50
2023-05-10T08:47:41.479Z,86976.97
2023-05-10T08:50:10.848Z,86976.16
2023-05-10T08:52:41.368Z,86975.41
2023-05-10T08:55:09.464Z,86977.72
2023-05-10T08:57:37.802Z,86983.72
2023-05-10T09:00:06.295Z,86975.81
2023-05-10T09:02:34.433Z,86982.97
2023-05-10T09:05:02.041Z,86988.59
2023-05-10T09:07:29.617Z,86990.13
2023-05-10T09:09:58.909Z,86992.38
2023-05-10T09:12:26.490Z,86993.94
2023-05-10T09:14:56.861Z,86989.84
2023-05-10T09:17:26.324Z,86985.69
2023-05-10T09:20:05.254Z,86997.78
2023-05-10T09:22:33.122Z,86994.03
2023-05-10T09:25:13.371Z,86991.41
2023-05-10T09:27:48.353Z,86987.28
2023-05-10T09:30:32.181Z,86990.69
2023-05-10T09:33:00.915Z,86993.72
2023-05-10T09:35:32.465Z,86994.09
2023-05-10T09:38:04.714Z,86992.59
2023-05-10T09:40:33.412Z,86985.81
2023-05-10T09:43:04.493Z,86994.47
2023-05-10T09:45:37.700Z,87000.13
2023-05-10T09:48:07.219Z,86997.13
2023-05-10T09:50:34.778Z,86993.38
2023-05-10T09:53:04.550Z,86996.38
2023-05-10T09:55:46.742Z,86999.03
2023-05-10T09:58:15.525Z,86999.81
2023-05-10T10:00:45.477Z,87004.31
2023-05-10T10:03:19.544Z,87000.94
2023-05-10T10:05:48.851Z,86991.94
2023-05-10T10:08:17.049Z,86997.97
2023-05-10T10:10:44.414Z,86994.94
2023-05-10T10:13:11.948Z,87000.59
2023-05-10T10:15:40.224Z,86994.59
2023-05-10T10:18:13.476Z,87000.97
2023-05-10T10:20:41.188Z,87004.00
2023-05-10T10:23:09.859Z,87006.66
2023-05-10T10:25:39.290Z,86999.50
2023-05-10T10:28:28.465Z,87007.03
2023-05-10T10:31:02.061Z,87010.41
2023-05-10T10:33:42.387Z,87007.38
2023-05-10T10:36:09.843Z,87011.16
2023-05-10T10:39:02.336Z,87009.28
2023-05-10T10:41:36.115Z,87016.41
